sensor_id;sensor_type;location;lat;lon;timestamp;temperature;humidity
9820;DHT22;4949;48.482;9.206;2023-12-14T00:04:05;7.00;99.90
9820;DHT22;4949;48.482;9.206;2023-12-14T00:09:08;7.00;99.90
9820;DHT22;4949;48.482;9.206;2023-12-14T00:14:09;7.10;99.90
9820;DHT22;4949;48.482;9.206;2023-12-14T00:19:09;7.00;99.90
9820;DHT22;4949;48.482;9.206;2023-12-14T00:24:10;7.00;99.90
9820;DHT22;4949;48.482;9.206;2023-12-14T00:29:11;7.00;99.90
9820;DHT22;4949;48.482;9.206;2023-12-14T00:34:14;6.90;99.90
9820;DHT22;4949;48.482;9.206;2023-12-14T00:39:15;6.90;99.90
9820;DHT22;4949;48.482;9.206;2023-12-14T00:44:16;7.00;99.90
9820;DHT22;4949;48.482;9.206;2023-12-14T00:49:17;7.40;99.90
9820;DHT22;4949;48.482;9.206;2023-12-14T00:54:19;7.40;99.90
9820;DHT22;4949;48.482;9.206;2023-12-14T00:59:20;7.00;99.90
9820;DHT22;4949;48.482;9.206;2023-12-14T01:04:21;7.00;99.90
9820;DHT22;4949;48.482;9.206;2023-12-14T01:09:24;7.00;99.90
9820;DHT22;4949;48.482;9.206;2023-12-14T01:14:29;7.10;99.90
9820;DHT22;4949;48.482;9.206;2023-12-14T01:19:29;7.20;99.90
9820;DHT22;4949;48.482;9.206;2023-12-14T01:24:30;7.20;99.90
9820;DHT22;4949;48.482;9.206;2023-12-14T01:29:33;7.10;99.90
9820;DHT22;4949;48.482;9.206;2023-12-14T01:34:34;7.10;99.90
9820;DHT22;4949;48.482;9.206;2023-12-14T01:39:35;7.20;99.90
9820;DHT22;4949;48.482;9.206;2023-12-14T01:44:35;7.20;99.90
9820;DHT22;4949;48.482;9.206;2023-12-14T01:49:38;7.20;99.90
9820;DHT22;4949;48.482;9.206;2023-12-14T01:54:42;7.20;99.90
9820;DHT22;4949;48.482;9.206;2023-12-14T01:59:45;7.40;99.90
9820;DHT22;4949;48.482;9.206;2023-12-14T02:04:46;7.30;99.90
9820;DHT22;4949;48.482;9.206;2023-12-14T02:09:49;7.40;99.90
9820;DHT22;4949;48.482;9.206;2023-12-14T02:14:50;7.60;99.90
9820;DHT22;4949;48.482;9.206;2023-12-14T02:19:51;7.30;99.90
9820;DHT22;4949;48.482;9.206;2023-12-14T02:24:54;7.30;99.90
9820;DHT22;4949;48.482;9.206;2023-12-14T02:29:55;7.40;99.90
9820;DHT22;4949;48.482;9.206;2023-12-14T02:34:56;7.30;99.90
9820;DHT22;4949;48.482;9.206;2023-12-14T02:40:00;7.40;99.90
9820;DHT22;4949;48.482;9.206;2023-12-14T02:45:04;7.40;99.90
9820;DHT22;4949;48.482;9.206;2023-12-14T02:50:11;7.40;99.90
9820;DHT22;4949;48.482;9.206;2023-12-14T02:55:12;7.50;99.90
9820;DHT22;4949;48.482;9.206;2023-12-14T03:00:13;7.30;99.90
9820;DHT22;4949;48.482;9.206;2023-12-14T03:05:16;7.20;99.90
9820;DHT22;4949;48.482;9.206;2023-12-14T03:10:19;7.30;99.90
9820;DHT22;4949;48.482;9.206;2023-12-14T03:15:20;7.30;99.90
9820;DHT22;4949;48.482;9.206;2023-12-14T03:20:23;7.30;99.90
9820;DHT22;4949;48.482;9.206;2023-12-14T03:25:24;7.10;99.90
9820;DHT22;4949;48.482;9.206;2023-12-14T03:30:24;7.10;99.90
9820;DHT22;4949;48.482;9.206;2023-12-14T03:35:29;7.20;99.90
9820;DHT22;4949;48.482;9.206;2023-12-14T03:40:30;7.20;99.90
9820;DHT22;4949;48.482;9.206;2023-12-14T03:45:31;7.20;99.90
9820;DHT22;4949;48.482;9.206;2023-12-14T03:50:34;7.30;99.90
9820;DHT22;4949;48.482;9.206;2023-12-14T03:55:35;7.70;99.90
9820;DHT22;4949;48.482;9.206;2023-12-14T04:00:37;7.20;99.90
9820;DHT22;4949;48.482;9.206;2023-12-14T04:05:38;7.30;99.90
9820;DHT22;4949;48.482;9.206;2023-12-14T04:10:39;7.30;99.90
9820;DHT22;4949;48.482;9.206;2023-12-14T04:15:40;7.30;99.90
9820;DHT22;4949;48.482;9.206;2023-12-14T04:20:43;7.50;99.90
9820;DHT22;4949;48.482;9.206;2023-12-14T04:25:46;7.20;99.90
9820;DHT22;4949;48.482;9.206;2023-12-14T04:30:47;7.30;99.90
9820;DHT22;4949;48.482;9.206;2023-12-14T04:35:48;7.00;99.90
9820;DHT22;4949;48.482;9.206;2023-12-14T04:40:49;7.20;99.90
9820;DHT22;4949;48.482;9.206;2023-12-14T04:45:49;7.50;99.90
9820;DHT22;4949;48.482;9.206;2023-12-14T04:50:53;7.20;99.90
9820;DHT22;4949;48.482;9.206;2023-12-14T04:55:54;7.30;99.90
9820;DHT22;4949;48.482;9.206;2023-12-14T05:00:55;7.60;99.90
9820;DHT22;4949;48.482;9.206;2023-12-14T05:05:55;7.20;99.90
9820;DHT22;4949;48.482;9.206;2023-12-14T05:10:59;7.20;99.90
9820;DHT22;4949;48.482;9.206;2023-12-14T05:15:59;7.30;99.90
9820;DHT22;4949;48.482;9.206;2023-12-14T05:21:01;7.20;99.90
9820;DHT22;4949;48.482;9.206;2023-12-14T05:26:02;7.50;99.90
9820;DHT22;4949;48.482;9.206;2023-12-14T05:31:06;7.20;99.90
9820;DHT22;4949;48.482;9.206;2023-12-14T05:36:07;7.20;99.90
9820;DHT22;4949;48.482;9.206;2023-12-14T05:41:10;7.20;99.90
9820;DHT22;4949;48.482;9.206;2023-12-14T05:46:23;7.50;99.90
9820;DHT22;4949;48.482;9.206;2023-12-14T05:51:30;7.30;99.90
9820;DHT22;4949;48.482;9.206;2023-12-14T05:56:32;7.40;99.90
9820;DHT22;4949;48.482;9.206;2023-12-14T06:01:32;7.40;99.90
9820;DHT22;4949;48.482;9.206;2023-12-14T06:06:33;7.40;99.90
9820;DHT22;4949;48.482;9.206;2023-12-14T06:11:34;7.40;99.90
9820;DHT22;4949;48.482;9.206;2023-12-14T06:16:36;7.50;99.90
9820;DHT22;4949;48.482;9.206;2023-12-14T06:21:37;7.40;99.90
9820;DHT22;4949;48.482;9.206;2023-12-14T06:26:42;7.60;99.90
9820;DHT22;4949;48.482;9.206;2023-12-14T06:31:45;7.20;99.90
9820;DHT22;4949;48.482;9.206;2023-12-14T06:36:47;7.30;99.90
9820;DHT22;4949;48.482;9.206;2023-12-14T06:41:48;7.60;99.90
9820;DHT22;4949;48.482;9.206;2023-12-14T06:46:48;7.50;99.90
9820;DHT22;4949;48.482;9.206;2023-12-14T06:51:51;7.20;99.90
9820;DHT22;4949;48.482;9.206;2023-12-14T06:56:52;7.20;99.90
9820;DHT22;4949;48.482;9.206;2023-12-14T07:01:56;7.20;99.90
9820;DHT22;4949;48.482;9.206;2023-12-14T07:06:56;7.20;99.90
9820;DHT22;4949;48.482;9.206;2023-12-14T07:11:57;7.20;99.90
9820;DHT22;4949;48.482;9.206;2023-12-14T07:16:59;7.30;99.90
9820;DHT22;4949;48.482;9.206;2023-12-14T07:22:02;7.30;99.90
9820;DHT22;4949;48.482;9.206;2023-12-14T07:27:03;7.30;99.90
9820;DHT22;4949;48.482;9.206;2023-12-14T07:32:06;7.20;99.90
9820;DHT22;4949;48.482;9.206;2023-12-14T07:37:07;7.30;99.90
9820;DHT22;4949;48.482;9.206;2023-12-14T07:42:08;7.30;99.90
9820;DHT22;4949;48.482;9.206;2023-12-14T07:47:11;7.30;99.90
9820;DHT22;4949;48.482;9.206;2023-12-14T07:52:11;7.40;99.90
9820;DHT22;4949;48.482;9.206;2023-12-14T07:57:14;7.20;99.90
9820;DHT22;4949;48.482;9.206;2023-12-14T08:02:14;7.30;99.90
9820;DHT22;4949;48.482;9.206;2023-12-14T08:07:18;7.30;99.90
9820;DHT22;4949;48.482;9.206;2023-12-14T08:12:18;7.30;99.90
9820;DHT22;4949;48.482;9.206;2023-12-14T08:17:19;7.70;99.90
9820;DHT22;4949;48.482;9.206;2023-12-14T08:22:21;7.40;99.90
9820;DHT22;4949;48.482;9.206;2023-12-14T08:27:27;7.40;99.90
9820;DHT22;4949;48.482;9.206;2023-12-14T08:32:30;7.50;99.90
9820;DHT22;4949;48.482;9.206;2023-12-14T08:37:31;7.60;99.90
9820;DHT22;4949;48.482;9.206;2023-12-14T08:42:34;7.40;99.90
9820;DHT22;4949;48.482;9.206;2023-12-14T08:47:35;7.40;99.90
9820;DHT22;4949;48.482;9.206;2023-12-14T08:52:35;7.60;99.90
9820;DHT22;4949;48.482;9.206;2023-12-14T08:57:39;7.70;99.90
9820;DHT22;4949;48.482;9.206;2023-12-14T09:02:40;7.60;99.90
9820;DHT22;4949;48.482;9.206;2023-12-14T09:07:44;7.90;99.90
9820;DHT22;4949;48.482;9.206;2023-12-14T09:12:45;7.60;99.90
9820;DHT22;4949;48.482;9.206;2023-12-14T09:17:48;7.70;99.90
9820;DHT22;4949;48.482;9.206;2023-12-14T09:22:48;8.20;99.90
9820;DHT22;4949;48.482;9.206;2023-12-14T09:27:51;7.90;99.90
9820;DHT22;4949;48.482;9.206;2023-12-14T09:32:54;7.70;99.90
9820;DHT22;4949;48.482;9.206;2023-12-14T09:37:55;7.90;99.90
9820;DHT22;4949;48.482;9.206;2023-12-14T09:42:56;7.90;99.90
9820;DHT22;4949;48.482;9.206;2023-12-14T09:47:57;8.00;99.90
9820;DHT22;4949;48.482;9.206;2023-12-14T09:53:00;7.80;99.90
9820;DHT22;4949;48.482;9.206;2023-12-14T09:58:01;7.90;99.90
9820;DHT22;4949;48.482;9.206;2023-12-14T10:03:37;7.90;99.90
9820;DHT22;4949;48.482;9.206;2023-12-14T10:08:37;8.00;99.90
9820;DHT22;4949;48.482;9.206;2023-12-14T10:13:45;8.00;99.90
9820;DHT22;4949;48.482;9.206;2023-12-14T10:18:48;8.40;99.90
9820;DHT22;4949;48.482;9.206;2023-12-14T10:23:50;8.30;99.90
9820;DHT22;4949;48.482;9.206;2023-12-14T10:28:52;8.50;99.90
9820;DHT22;4949;48.482;9.206;2023-12-14T10:33:54;8.00;99.90
9820;DHT22;4949;48.482;9.206;2023-12-14T10:38:57;7.90;99.90
9820;DHT22;4949;48.482;9.206;2023-12-14T10:44:00;7.90;99.90
9820;DHT22;4949;48.482;9.206;2023-12-14T10:49:02;8.00;99.90
9820;DHT22;4949;48.482;9.206;2023-12-14T10:54:06;8.00;99.90
9820;DHT22;4949;48.482;9.206;2023-12-14T10:59:07;8.40;99.90
9820;DHT22;4949;48.482;9.206;2023-12-14T11:04:08;8.10;99.90
9820;DHT22;4949;48.482;9.206;2023-12-14T11:09:17;8.20;99.90
9820;DHT22;4949;48.482;9.206;2023-12-14T11:14:19;8.50;99.90
9820;DHT22;4949;48.482;9.206;2023-12-14T11:19:24;8.10;99.90
9820;DHT22;4949;48.482;9.206;2023-12-14T11:24:25;8.20;99.90
9820;DHT22;4949;48.482;9.206;2023-12-14T11:29:28;8.20;99.90
9820;DHT22;4949;48.482;9.206;2023-12-14T11:34:28;8.20;99.90
9820;DHT22;4949;48.482;9.206;2023-12-14T11:39:32;8.50;99.90
9820;DHT22;4949;48.482;9.206;2023-12-14T11:44:33;8.70;99.90
9820;DHT22;4949;48.482;9.206;2023-12-14T11:49:33;9.30;99.90
9820;DHT22;4949;48.482;9.206;2023-12-14T11:54:34;9.10;99.90
9820;DHT22;4949;48.482;9.206;2023-12-14T11:59:35;9.20;99.30
9820;DHT22;4949;48.482;9.206;2023-12-14T12:04:38;9.40;99.70
9820;DHT22;4949;48.482;9.206;2023-12-14T12:09:51;9.80;98.60
9820;DHT22;4949;48.482;9.206;2023-12-14T12:14:52;9.60;98.80
9820;DHT22;4949;48.482;9.206;2023-12-14T12:19:54;9.60;99.50
9820;DHT22;4949;48.482;9.206;2023-12-14T12:24:55;9.60;99.90
9820;DHT22;4949;48.482;9.206;2023-12-14T12:29:55;9.70;99.20
9820;DHT22;4949;48.482;9.206;2023-12-14T12:34:58;9.40;99.40
9820;DHT22;4949;48.482;9.206;2023-12-14T12:40:05;9.30;99.70
9820;DHT22;4949;48.482;9.206;2023-12-14T12:45:08;9.20;99.90
9820;DHT22;4949;48.482;9.206;2023-12-14T12:50:09;9.10;99.90
9820;DHT22;4949;48.482;9.206;2023-12-14T12:55:10;9.50;99.90
9820;DHT22;4949;48.482;9.206;2023-12-14T13:00:11;8.90;98.40
9820;DHT22;4949;48.482;9.206;2023-12-14T13:05:12;8.90;99.50
9820;DHT22;4949;48.482;9.206;2023-12-14T13:10:16;8.80;99.70
9820;DHT22;4949;48.482;9.206;2023-12-14T13:15:22;8.80;99.40
9820;DHT22;4949;48.482;9.206;2023-12-14T13:20:27;8.70;99.80
9820;DHT22;4949;48.482;9.206;2023-12-14T13:25:28;8.70;99.70
9820;DHT22;4949;48.482;9.206;2023-12-14T13:30:31;8.60;99.60
9820;DHT22;4949;48.482;9.206;2023-12-14T13:35:34;8.50;99.70
9820;DHT22;4949;48.482;9.206;2023-12-14T13:40:34;8.40;99.80
9820;DHT22;4949;48.482;9.206;2023-12-14T13:45:37;8.30;99.90
9820;DHT22;4949;48.482;9.206;2023-12-14T13:50:38;8.40;99.90
9820;DHT22;4949;48.482;9.206;2023-12-14T13:55:39;8.40;99.90
9820;DHT22;4949;48.482;9.206;2023-12-14T14:00:40;8.20;99.90
9820;DHT22;4949;48.482;9.206;2023-12-14T14:05:41;8.40;99.90
9820;DHT22;4949;48.482;9.206;2023-12-14T14:10:44;8.50;99.90
9820;DHT22;4949;48.482;9.206;2023-12-14T14:15:45;8.50;99.90
9820;DHT22;4949;48.482;9.206;2023-12-14T14:20:45;8.60;99.90
9820;DHT22;4949;48.482;9.206;2023-12-14T14:25:46;9.00;99.90
9820;DHT22;4949;48.482;9.206;2023-12-14T14:30:47;8.90;99.90
9820;DHT22;4949;48.482;9.206;2023-12-14T14:35:48;8.60;99.90
9820;DHT22;4949;48.482;9.206;2023-12-14T14:40:49;8.70;99.90
9820;DHT22;4949;48.482;9.206;2023-12-14T14:45:50;8.70;99.90
9820;DHT22;4949;48.482;9.206;2023-12-14T14:50:50;8.90;99.90
9820;DHT22;4949;48.482;9.206;2023-12-14T14:55:54;8.90;99.90
9820;DHT22;4949;48.482;9.206;2023-12-14T15:00:57;8.60;99.90
9820;DHT22;4949;48.482;9.206;2023-12-14T15:05:58;8.60;99.90
9820;DHT22;4949;48.482;9.206;2023-12-14T15:11:01;8.60;99.90
9820;DHT22;4949;48.482;9.206;2023-12-14T15:16:03;8.60;99.90
9820;DHT22;4949;48.482;9.206;2023-12-14T15:21:04;8.60;99.90
9820;DHT22;4949;48.482;9.206;2023-12-14T15:26:10;8.60;99.90
9820;DHT22;4949;48.482;9.206;2023-12-14T15:31:11;8.40;99.90
9820;DHT22;4949;48.482;9.206;2023-12-14T15:36:12;8.70;99.90
9820;DHT22;4949;48.482;9.206;2023-12-14T15:41:15;8.30;99.90
9820;DHT22;4949;48.482;9.206;2023-12-14T15:46:16;8.30;99.90
9820;DHT22;4949;48.482;9.206;2023-12-14T15:51:22;8.30;99.90
9820;DHT22;4949;48.482;9.206;2023-12-14T15:56:22;8.30;99.90
9820;DHT22;4949;48.482;9.206;2023-12-14T16:01:23;8.20;99.90
9820;DHT22;4949;48.482;9.206;2023-12-14T16:06:24;8.20;99.90
9820;DHT22;4949;48.482;9.206;2023-12-14T16:11:25;8.10;99.90
9820;DHT22;4949;48.482;9.206;2023-12-14T16:16:30;8.10;99.90
9820;DHT22;4949;48.482;9.206;2023-12-14T16:21:31;8.10;99.90
9820;DHT22;4949;48.482;9.206;2023-12-14T16:26:34;8.10;99.90
9820;DHT22;4949;48.482;9.206;2023-12-14T16:31:41;8.50;99.90
9820;DHT22;4949;48.482;9.206;2023-12-14T16:36:42;8.10;99.90
9820;DHT22;4949;48.482;9.206;2023-12-14T16:41:45;8.00;99.90
9820;DHT22;4949;48.482;9.206;2023-12-14T16:46:45;8.50;99.90
9820;DHT22;4949;48.482;9.206;2023-12-14T16:51:46;8.30;99.90
9820;DHT22;4949;48.482;9.206;2023-12-14T16:56:47;7.90;99.90
9820;DHT22;4949;48.482;9.206;2023-12-14T17:01:48;8.40;99.90
9820;DHT22;4949;48.482;9.206;2023-12-14T17:06:49;8.40;99.90
9820;DHT22;4949;48.482;9.206;2023-12-14T17:11:50;8.00;99.90
9820;DHT22;4949;48.482;9.206;2023-12-14T17:16:50;8.20;99.90
9820;DHT22;4949;48.482;9.206;2023-12-14T17:21:56;8.10;99.90
9820;DHT22;4949;48.482;9.206;2023-12-14T17:26:57;8.00;99.90
9820;DHT22;4949;48.482;9.206;2023-12-14T17:31:58;7.80;99.90
9820;DHT22;4949;48.482;9.206;2023-12-14T17:36:59;7.80;99.90
9820;DHT22;4949;48.482;9.206;2023-12-14T17:41:59;7.90;99.90
9820;DHT22;4949;48.482;9.206;2023-12-14T17:47:00;7.80;99.90
9820;DHT22;4949;48.482;9.206;2023-12-14T17:52:01;7.80;99.90
9820;DHT22;4949;48.482;9.206;2023-12-14T17:57:02;7.80;99.90
9820;DHT22;4949;48.482;9.206;2023-12-14T18:02:03;7.80;99.90
9820;DHT22;4949;48.482;9.206;2023-12-14T18:07:03;8.10;99.90
9820;DHT22;4949;48.482;9.206;2023-12-14T18:12:04;7.80;99.90
9820;DHT22;4949;48.482;9.206;2023-12-14T18:17:05;7.80;99.90
9820;DHT22;4949;48.482;9.206;2023-12-14T18:22:06;7.80;99.90
9820;DHT22;4949;48.482;9.206;2023-12-14T18:27:06;7.80;99.90
9820;DHT22;4949;48.482;9.206;2023-12-14T18:32:07;7.80;99.90
9820;DHT22;4949;48.482;9.206;2023-12-14T18:37:11;7.80;99.90
9820;DHT22;4949;48.482;9.206;2023-12-14T18:42:14;7.80;99.90
9820;DHT22;4949;48.482;9.206;2023-12-14T18:47:17;7.70;99.90
9820;DHT22;4949;48.482;9.206;2023-12-14T18:52:18;8.00;99.90
9820;DHT22;4949;48.482;9.206;2023-12-14T18:57:22;7.60;99.90
9820;DHT22;4949;48.482;9.206;2023-12-14T19:02:25;7.40;99.90
9820;DHT22;4949;48.482;9.206;2023-12-14T19:07:27;7.80;99.90
9820;DHT22;4949;48.482;9.206;2023-12-14T19:12:28;7.50;99.90
9820;DHT22;4949;48.482;9.206;2023-12-14T19:17:29;7.40;99.90
9820;DHT22;4949;48.482;9.206;2023-12-14T19:22:29;7.70;99.90
9820;DHT22;4949;48.482;9.206;2023-12-14T19:27:35;7.40;99.90
9820;DHT22;4949;48.482;9.206;2023-12-14T19:32:36;7.50;99.90
9820;DHT22;4949;48.482;9.206;2023-12-14T19:37:37;7.40;99.90
9820;DHT22;4949;48.482;9.206;2023-12-14T19:42:37;7.40;99.90
9820;DHT22;4949;48.482;9.206;2023-12-14T19:47:41;7.40;99.90
9820;DHT22;4949;48.482;9.206;2023-12-14T19:52:42;7.30;99.90
9820;DHT22;4949;48.482;9.206;2023-12-14T19:57:46;7.30;99.90
9820;DHT22;4949;48.482;9.206;2023-12-14T20:02:51;7.40;99.90
9820;DHT22;4949;48.482;9.206;2023-12-14T20:07:56;7.40;99.90
9820;DHT22;4949;48.482;9.206;2023-12-14T20:12:57;7.30;99.90
9820;DHT22;4949;48.482;9.206;2023-12-14T20:17:58;7.30;99.90
9820;DHT22;4949;48.482;9.206;2023-12-14T20:23:02;7.30;99.90
9820;DHT22;4949;48.482;9.206;2023-12-14T20:28:07;7.60;99.90
9820;DHT22;4949;48.482;9.206;2023-12-14T20:33:07;7.30;99.90
9820;DHT22;4949;48.482;9.206;2023-12-14T20:38:08;7.40;99.90
9820;DHT22;4949;48.482;9.206;2023-12-14T20:43:18;7.50;99.90
9820;DHT22;4949;48.482;9.206;2023-12-14T20:48:19;7.30;99.90
9820;DHT22;4949;48.482;9.206;2023-12-14T20:53:20;7.30;99.90
9820;DHT22;4949;48.482;9.206;2023-12-14T20:58:20;7.30;99.90
9820;DHT22;4949;48.482;9.206;2023-12-14T21:03:21;7.20;99.90
9820;DHT22;4949;48.482;9.206;2023-12-14T21:08:24;7.10;99.90
9820;DHT22;4949;48.482;9.206;2023-12-14T21:13:26;7.00;99.90
9820;DHT22;4949;48.482;9.206;2023-12-14T21:18:28;6.90;99.90
9820;DHT22;4949;48.482;9.206;2023-12-14T21:23:31;7.00;99.90
9820;DHT22;4949;48.482;9.206;2023-12-14T21:28:32;7.40;99.90
9820;DHT22;4949;48.482;9.206;2023-12-14T21:33:35;7.00;99.90
9820;DHT22;4949;48.482;9.206;2023-12-14T21:38:36;7.10;99.90
9820;DHT22;4949;48.482;9.206;2023-12-14T21:43:36;6.90;99.90
9820;DHT22;4949;48.482;9.206;2023-12-14T21:48:37;6.80;99.90
9820;DHT22;4949;48.482;9.206;2023-12-14T21:53:38;6.60;99.90
9820;DHT22;4949;48.482;9.206;2023-12-14T21:58:41;6.80;99.90
9820;DHT22;4949;48.482;9.206;2023-12-14T22:03:42;6.60;99.90
9820;DHT22;4949;48.482;9.206;2023-12-14T22:08:42;6.50;99.60
9820;DHT22;4949;48.482;9.206;2023-12-14T22:13:43;6.40;99.40
9820;DHT22;4949;48.482;9.206;2023-12-14T22:18:44;6.30;99.40
9820;DHT22;4949;48.482;9.206;2023-12-14T22:23:45;6.30;99.30
9820;DHT22;4949;48.482;9.206;2023-12-14T22:28:45;6.40;99.40
9820;DHT22;4949;48.482;9.206;2023-12-14T22:33:49;6.50;99.90
9820;DHT22;4949;48.482;9.206;2023-12-14T22:38:50;6.30;99.90
9820;DHT22;4949;48.482;9.206;2023-12-14T22:43:56;6.30;99.90
9820;DHT22;4949;48.482;9.206;2023-12-14T22:48:56;6.40;99.90
9820;DHT22;4949;48.482;9.206;2023-12-14T22:53:57;6.60;99.90
9820;DHT22;4949;48.482;9.206;2023-12-14T22:59:00;6.10;99.90
9820;DHT22;4949;48.482;9.206;2023-12-14T23:04:02;6.00;99.90
9820;DHT22;4949;48.482;9.206;2023-12-14T23:09:03;6.10;99.90
9820;DHT22;4949;48.482;9.206;2023-12-14T23:14:04;6.10;99.90
9820;DHT22;4949;48.482;9.206;2023-12-14T23:19:05;6.10;99.90
9820;DHT22;4949;48.482;9.206;2023-12-14T23:24:08;6.10;99.90
9820;DHT22;4949;48.482;9.206;2023-12-14T23:29:09;6.10;99.90
9820;DHT22;4949;48.482;9.206;2023-12-14T23:34:12;6.10;99.90
9820;DHT22;4949;48.482;9.206;2023-12-14T23:39:13;6.00;99.90
9820;DHT22;4949;48.482;9.206;2023-12-14T23:44:16;6.10;99.90
9820;DHT22;4949;48.482;9.206;2023-12-14T23:49:19;6.30;99.90
9820;DHT22;4949;48.482;9.206;2023-12-14T23:54:22;5.90;99.90
9820;DHT22;4949;48.482;9.206;2023-12-14T23:59:25;5.90;99.90
